Terminal Aerodrome Forecast
Issued by NWS Jackson, MS

Home | Current Version | Previous Version | Text Only | Print | Product List | Glossary On
Versions: 1 2 3 4 5 6 7 8 9 10 11 12 13 14 15 16
000
FTUS44 KMEG 292330
TAFTUP
TAF
KTUP 292330Z 3000/3024 20012G18KT P6SM SKC
     FM300100 21009KT P6SM SCT100
     FM300300 21007KT P6SM VCSH OVC040
      TEMPO 3005/3009 VRB10G25KT 2SM -TSRA BKN015 OVC025CB
     FM301000 36007KT 6SM BR VCSH SCT005 OVC015
     FM301400 04006KT P6SM SKC=

USA.gov is the U.S. government's official web portal to all federal, state and local government web resources and services.